(°C)
15°
14°
12°
11°
10°
(°C)
11°
10°
S
S
S
SSZ
SSZ
S
S
(km/h)
13-22
12-21
10-17
9-16
8-14
8-13
7-13
(mm)
0
0
0
0
0
0
0
(%)
0
0
0
0
0
0
0

Podizanje Sunca

/ 11.9°
sun-icon
UV 2
07:09
18:03
Rastući mesec (132°)
16:56
02:03

METAR za Ivanka pri Dunaji (LZIB)

Vreme Uslovi Temperatura/
Tačka rose
Vetar Vidljivost Prognoza Oblaci Pritisak Promena Neobrađeno
VFR 15°C / 3°C 320º 9kt >10km - Clouds and Visibility OK 1020 No Significant change LZIB 161400Z 32009KT CAVOK 15/03 Q1020 NOSIG
VFR 15°C / 3°C 330º variable 290º to 010º 8kt >10km - Clouds and Visibility OK 1020 No Significant change LZIB 161330Z 33008KT 290V010 CAVOK 15/03 Q1020 NOSIG
VFR 15°C / 3°C 340º variable 300º to 020º 8kt >10km - Clouds and Visibility OK 1020 No Significant change LZIB 161300Z 34008KT 300V020 CAVOK 15/03 Q1020 NOSIG
VFR 15°C / 3°C 330º 9kt >10km - Few Clouds 4200ft 1020 No Significant change LZIB 161230Z 33009KT 9999 FEW042 15/03 Q1020 NOSIG
VFR 15°C / 3°C 300º 10kt >10km - Few Clouds 3800ft 1020 No Significant change LZIB 161200Z 30010KT 9999 FEW038 15/03 Q1020 NOSIG
VFR 14°C / 6°C 330º 9kt >10km - Few Clouds 3500ft 1021 No Significant change LZIB 161130Z 33009KT 9999 FEW035 14/06 Q1021 NOSIG
VFR 14°C / 5°C 340º variable 300º to 010º 8kt >10km - Few Clouds 3500ft 1021 No Significant change LZIB 161100Z 34008KT 300V010 9999 FEW035 14/05 Q1021 NOSIG
VFR 14°C / 6°C 310º 12kt >10km - Few Clouds 3300ft 1021 No Significant change LZIB 161030Z 31012KT 9999 FEW033 14/06 Q1021 NOSIG
VFR 14°C / 6°C 320º variable 280º to 010º 7kt >10km - Scattered Clouds 3100ft 1021 No Significant change LZIB 161000Z 32007KT 280V010 9999 SCT031 14/06 Q1021 NOSIG
VFR 13°C / 6°C 340º variable 280º to 020º 5kt >10km - Scattered Clouds 3300ft 1021 No Significant change LZIB 160930Z 34005KT 280V020 9999 SCT033 13/06 Q1021 NOSIG
VFR 13°C / 6°C 340º variable 310º to 030º 5kt >10km - Scattered Clouds 2500ft 1021 No Significant change LZIB 160900Z 34005KT 310V030 9999 SCT025 13/06 Q1021 NOSIG
VFR 13°C / 6°C 10º variable 310º to 050º 5kt >10km - Few Clouds 2400ft 1021 No Significant change LZIB 160830Z 01005KT 310V050 9999 FEW024 13/06 Q1021 NOSIG
VFR 12°C / 7°C 330º 4kt >10km - Clouds and Visibility OK 1021 No Significant change LZIB 160800Z 33004KT CAVOK 12/07 Q1021 NOSIG
VFR 11°C / 7°C 310º 5kt >10km - Few Clouds 2000ft 1021 No Significant change LZIB 160730Z 31005KT 9999 FEW020 11/07 Q1021 NOSIG
VFR 10°C / 7°C 270º 3kt >10km - Few Clouds 2000ft 1020 No Significant change LZIB 160700Z 27003KT 9999 FEW020 10/07 Q1020 NOSIG
VFR 7°C / 6°C 240º 4kt >10km - Few Clouds 2000ft 1020 No Significant change LZIB 160630Z 24004KT 9999 FEW020 07/06 Q1020 NOSIG
VFR 5°C / 5°C 170º 2kt >10km patches Fog Vertical Visibility of 0ft. 1020 No Significant change LZIB 160600Z 17002KT 9999 2000E BCFG FEW020 05/05 Q1020 NOSIG
VFR 7°C / 5°C 220º 1kt >10km patches Fog Vertical Visibility of 0ft. 1019 No Significant change LZIB 160530Z 22001KT 9999 2000NE BCFG NSC 07/05 Q1019 NOSIG
VFR 7°C / 5°C 210º 2kt >10km - Clouds and Visibility OK 1019 No Significant change LZIB 160500Z 21002KT CAVOK 07/05 Q1019 NOSIG
VFR 7°C / 5°C variable 2kt >10km - Clouds and Visibility OK 1019 No Significant change LZIB 160430Z VRB02KT CAVOK 07/05 Q1019 NOSIG
VFR 7°C / 6°C variable 2kt >10km - Clouds and Visibility OK 1019 No Significant change LZIB 160400Z VRB02KT CAVOK 07/06 Q1019 NOSIG
VFR 7°C / 5°C 10º 2kt >10km - Clouds and Visibility OK 1019 - LZIB 160330Z 01002KT CAVOK 07/05 Q1019
VFR 7°C / 5°C 300º 2kt >10km - Clouds and Visibility OK 1019 - LZIB 160300Z 30002KT CAVOK 07/05 Q1019
VFR 7°C / 5°C variable 1kt >10km - Clouds and Visibility OK 1018 - LZIB 160230Z VRB01KT CAVOK 07/05 Q1018

VFR

15°C / 3°C

[Više]
Vetar 320º 9kt
Vidljivost >10km
Prognoza -
Oblaci Clouds and Visibility OK
Pritisak 1020
Promena No Significant change
Neobrađeno LZIB 161400Z 32009KT CAVOK 15/03 Q1020 NOSIG

VFR

15°C / 3°C

[Više]
Vetar 330º variable 290º to 010º 8kt
Vidljivost >10km
Prognoza -
Oblaci Clouds and Visibility OK
Pritisak 1020
Promena No Significant change
Neobrađeno LZIB 161330Z 33008KT 290V010 CAVOK 15/03 Q1020 NOSIG

VFR

15°C / 3°C

[Više]
Vetar 340º variable 300º to 020º 8kt
Vidljivost >10km
Prognoza -
Oblaci Clouds and Visibility OK
Pritisak 1020
Promena No Significant change
Neobrađeno LZIB 161300Z 34008KT 300V020 CAVOK 15/03 Q1020 NOSIG

VFR

15°C / 3°C

[Više]
Vetar 330º 9kt
Vidljivost >10km
Prognoza -
Oblaci Few Clouds 4200ft
Pritisak 1020
Promena No Significant change
Neobrađeno LZIB 161230Z 33009KT 9999 FEW042 15/03 Q1020 NOSIG

VFR

15°C / 3°C

[Više]
Vetar 300º 10kt
Vidljivost >10km
Prognoza -
Oblaci Few Clouds 3800ft
Pritisak 1020
Promena No Significant change
Neobrađeno LZIB 161200Z 30010KT 9999 FEW038 15/03 Q1020 NOSIG

VFR

14°C / 6°C

[Više]
Vetar 330º 9kt
Vidljivost >10km
Prognoza -
Oblaci Few Clouds 3500ft
Pritisak 1021
Promena No Significant change
Neobrađeno LZIB 161130Z 33009KT 9999 FEW035 14/06 Q1021 NOSIG

VFR

14°C / 5°C

[Više]
Vetar 340º variable 300º to 010º 8kt
Vidljivost >10km
Prognoza -
Oblaci Few Clouds 3500ft
Pritisak 1021
Promena No Significant change
Neobrađeno LZIB 161100Z 34008KT 300V010 9999 FEW035 14/05 Q1021 NOSIG

VFR

14°C / 6°C

[Više]
Vetar 310º 12kt
Vidljivost >10km
Prognoza -
Oblaci Few Clouds 3300ft
Pritisak 1021
Promena No Significant change
Neobrađeno LZIB 161030Z 31012KT 9999 FEW033 14/06 Q1021 NOSIG

VFR

14°C / 6°C

[Više]
Vetar 320º variable 280º to 010º 7kt
Vidljivost >10km
Prognoza -
Oblaci Scattered Clouds 3100ft
Pritisak 1021
Promena No Significant change
Neobrađeno LZIB 161000Z 32007KT 280V010 9999 SCT031 14/06 Q1021 NOSIG

VFR

13°C / 6°C

[Više]
Vetar 340º variable 280º to 020º 5kt
Vidljivost >10km
Prognoza -
Oblaci Scattered Clouds 3300ft
Pritisak 1021
Promena No Significant change
Neobrađeno LZIB 160930Z 34005KT 280V020 9999 SCT033 13/06 Q1021 NOSIG

VFR

13°C / 6°C

[Više]
Vetar 340º variable 310º to 030º 5kt
Vidljivost >10km
Prognoza -
Oblaci Scattered Clouds 2500ft
Pritisak 1021
Promena No Significant change
Neobrađeno LZIB 160900Z 34005KT 310V030 9999 SCT025 13/06 Q1021 NOSIG

VFR

13°C / 6°C

[Više]
Vetar 10º variable 310º to 050º 5kt
Vidljivost >10km
Prognoza -
Oblaci Few Clouds 2400ft
Pritisak 1021
Promena No Significant change
Neobrađeno LZIB 160830Z 01005KT 310V050 9999 FEW024 13/06 Q1021 NOSIG

VFR

12°C / 7°C

[Više]
Vetar 330º 4kt
Vidljivost >10km
Prognoza -
Oblaci Clouds and Visibility OK
Pritisak 1021
Promena No Significant change
Neobrađeno LZIB 160800Z 33004KT CAVOK 12/07 Q1021 NOSIG

VFR

11°C / 7°C

[Više]
Vetar 310º 5kt
Vidljivost >10km
Prognoza -
Oblaci Few Clouds 2000ft
Pritisak 1021
Promena No Significant change
Neobrađeno LZIB 160730Z 31005KT 9999 FEW020 11/07 Q1021 NOSIG

VFR

10°C / 7°C

[Više]
Vetar 270º 3kt
Vidljivost >10km
Prognoza -
Oblaci Few Clouds 2000ft
Pritisak 1020
Promena No Significant change
Neobrađeno LZIB 160700Z 27003KT 9999 FEW020 10/07 Q1020 NOSIG

VFR

7°C / 6°C

[Više]
Vetar 240º 4kt
Vidljivost >10km
Prognoza -
Oblaci Few Clouds 2000ft
Pritisak 1020
Promena No Significant change
Neobrađeno LZIB 160630Z 24004KT 9999 FEW020 07/06 Q1020 NOSIG

VFR

5°C / 5°C

[Više]
Vetar 170º 2kt
Vidljivost >10km
Prognoza patches Fog
Oblaci Vertical Visibility of 0ft.
Pritisak 1020
Promena No Significant change
Neobrađeno LZIB 160600Z 17002KT 9999 2000E BCFG FEW020 05/05 Q1020 NOSIG

VFR

7°C / 5°C

[Više]
Vetar 220º 1kt
Vidljivost >10km
Prognoza patches Fog
Oblaci Vertical Visibility of 0ft.
Pritisak 1019
Promena No Significant change
Neobrađeno LZIB 160530Z 22001KT 9999 2000NE BCFG NSC 07/05 Q1019 NOSIG

VFR

7°C / 5°C

[Više]
Vetar 210º 2kt
Vidljivost >10km
Prognoza -
Oblaci Clouds and Visibility OK
Pritisak 1019
Promena No Significant change
Neobrađeno LZIB 160500Z 21002KT CAVOK 07/05 Q1019 NOSIG

VFR

7°C / 5°C

[Više]
Vetar variable 2kt
Vidljivost >10km
Prognoza -
Oblaci Clouds and Visibility OK
Pritisak 1019
Promena No Significant change
Neobrađeno LZIB 160430Z VRB02KT CAVOK 07/05 Q1019 NOSIG

VFR

7°C / 6°C

[Više]
Vetar variable 2kt
Vidljivost >10km
Prognoza -
Oblaci Clouds and Visibility OK
Pritisak 1019
Promena No Significant change
Neobrađeno LZIB 160400Z VRB02KT CAVOK 07/06 Q1019 NOSIG

VFR

7°C / 5°C

[Više]
Vetar 10º 2kt
Vidljivost >10km
Prognoza -
Oblaci Clouds and Visibility OK
Pritisak 1019
Promena -
Neobrađeno LZIB 160330Z 01002KT CAVOK 07/05 Q1019

VFR

7°C / 5°C

[Više]
Vetar 300º 2kt
Vidljivost >10km
Prognoza -
Oblaci Clouds and Visibility OK
Pritisak 1019
Promena -
Neobrađeno LZIB 160300Z 30002KT CAVOK 07/05 Q1019

VFR

7°C / 5°C

[Više]
Vetar variable 1kt
Vidljivost >10km
Prognoza -
Oblaci Clouds and Visibility OK
Pritisak 1018
Promena -
Neobrađeno LZIB 160230Z VRB01KT CAVOK 07/05 Q1018

TAF za Ivanka pri Dunaji (LZIB)

From till


From till Wind 330º 8kt. Visibility 10km or more. Nil Significant Cloud.
Temporarly from till Visibility 10km or more. Scattered Clouds 3500ft.
Becoming from till Wind variable 2kt. Visibility 10km or more. Nil Significant Cloud.
Temporarly from till Visibility 10km or more. Scattered Clouds 3700ft.

Neobrađeno: TAF LZIB 161100Z 1612/1712 33008KT CAVOK TEMPO 1612/1615 9999 SCT035 BECMG 1616/1618 VRB02KT TEMPO 1709/1712 9999 SCT037

Trenutni satelitski snimci i slike kiše za Ivanka pri Dunaji, Словачка

Marker lokacije postavljen je na Ivanka pri Dunaji. [Više]

Satelitski snimci u realnom vremenu kombinuju vidljivu svetlost tokom dana sa infracrvenim zračenjem tokom noći. Noću slika nije tamna jer infracrveno zračenje može otkriti temperaturne razlike. Nažalost, niski oblaci i magla teško se mogu razlikovati od temperature zemlje tako da mogu biti skoro nevidljivi tokom noći. Meteosat satelitski snimci za Evropu se ažuriraju u realnom vremenu na svakih 5 minuta. Slnimci GOES-16/GOES-17 (Severna i Južna Amerika) and Himawari (Azia) ažuriraju se na svakih 10 minuta.

Padavine su procenjene na osnovu radara i satelita. U noćnim uslovima satelitske procene padavina su manje precizne od dnevnih. Narandžasti preseci obeležavaju mesta gde je munja otkrivena (preko Evropa).

Autorsko pravo 2021 EUMETSAT / meteoblue. Podaci za munje obezbeđeni od nowcast.

Radar i padavine kratka prognoza za Ivanka pri Dunaji

Rominjati
Svjetlo
Umjereno
Teška
Vrlo teško
Zdravo

Marker lokacije postavljen je na Ivanka pri Dunaji. Ova animacija prikazuje radar padavina za poslednji sat, kao i 1h prognozu. Пљусак кише или слаб снег може бити невидљив за радар. Интензитет падавина је кодиран у боји, у распону од светло плаве до наранџасте.